sensor_id;sensor_type;location;lat;lon;timestamp;temperature;humidity
10042;DHT22;5061;49.068;12.058;2024-03-23T00:55:30;9.30;99.90
10042;DHT22;5061;49.068;12.058;2024-03-23T00:58:51;9.20;99.90
10042;DHT22;5061;49.068;12.058;2024-03-23T01:02:11;9.20;99.90
10042;DHT22;5061;49.068;12.058;2024-03-23T01:05:32;9.20;99.90
10042;DHT22;5061;49.068;12.058;2024-03-23T01:08:53;9.10;99.90
10042;DHT22;5061;49.068;12.058;2024-03-23T01:12:13;9.10;99.90
10042;DHT22;5061;49.068;12.058;2024-03-23T01:15:34;9.00;99.90
10042;DHT22;5061;49.068;12.058;2024-03-23T01:18:54;8.90;99.90
10042;DHT22;5061;49.068;12.058;2024-03-23T01:22:15;8.90;99.90
10042;DHT22;5061;49.068;12.058;2024-03-23T01:25:35;8.80;99.90
10042;DHT22;5061;49.068;12.058;2024-03-23T01:28:56;8.80;99.90
10042;DHT22;5061;49.068;12.058;2024-03-23T01:32:17;8.70;99.90
10042;DHT22;5061;49.068;12.058;2024-03-23T01:35:39;8.70;99.90
10042;DHT22;5061;49.068;12.058;2024-03-23T01:38:59;8.60;99.90
10042;DHT22;5061;49.068;12.058;2024-03-23T01:42:20;8.60;99.90
10042;DHT22;5061;49.068;12.058;2024-03-23T01:45:41;8.60;99.90
10042;DHT22;5061;49.068;12.058;2024-03-23T01:49:02;8.60;99.90
10042;DHT22;5061;49.068;12.058;2024-03-23T01:52:22;8.50;99.90
10042;DHT22;5061;49.068;12.058;2024-03-23T01:55:43;8.50;99.90
10042;DHT22;5061;49.068;12.058;2024-03-23T01:59:05;8.50;99.90
10042;DHT22;5061;49.068;12.058;2024-03-23T02:02:25;8.50;99.90
10042;DHT22;5061;49.068;12.058;2024-03-23T02:05:46;8.40;99.90
10042;DHT22;5061;49.068;12.058;2024-03-23T02:09:07;8.40;99.90
10042;DHT22;5061;49.068;12.058;2024-03-23T02:12:27;8.30;99.90
10042;DHT22;5061;49.068;12.058;2024-03-23T02:15:48;8.30;99.90
10042;DHT22;5061;49.068;12.058;2024-03-23T02:19:09;8.30;99.90
10042;DHT22;5061;49.068;12.058;2024-03-23T02:22:36;8.30;99.90
10042;DHT22;5061;49.068;12.058;2024-03-23T02:25:57;8.30;99.90
10042;DHT22;5061;49.068;12.058;2024-03-23T02:29:18;8.30;99.90
10042;DHT22;5061;49.068;12.058;2024-03-23T02:32:40;8.20;99.90
10042;DHT22;5061;49.068;12.058;2024-03-23T02:36:01;8.20;99.90
10042;DHT22;5061;49.068;12.058;2024-03-23T02:39:21;8.20;99.90
10042;DHT22;5061;49.068;12.058;2024-03-23T02:42:42;8.20;99.90
10042;DHT22;5061;49.068;12.058;2024-03-23T02:46:03;8.10;99.90
10042;DHT22;5061;49.068;12.058;2024-03-23T02:49:25;8.20;99.90
10042;DHT22;5061;49.068;12.058;2024-03-23T02:52:46;8.10;99.90
10042;DHT22;5061;49.068;12.058;2024-03-23T02:56:07;8.10;99.90
10042;DHT22;5061;49.068;12.058;2024-03-23T02:59:28;8.10;99.90
10042;DHT22;5061;49.068;12.058;2024-03-23T03:02:49;8.00;99.90
10042;DHT22;5061;49.068;12.058;2024-03-23T03:06:09;8.00;99.90
10042;DHT22;5061;49.068;12.058;2024-03-23T03:09:30;7.90;99.90
10042;DHT22;5061;49.068;12.058;2024-03-23T03:12:51;7.90;99.90
10042;DHT22;5061;49.068;12.058;2024-03-23T03:16:11;7.90;99.90
10042;DHT22;5061;49.068;12.058;2024-03-23T03:19:33;7.90;99.90
10042;DHT22;5061;49.068;12.058;2024-03-23T03:22:54;8.00;99.90
10042;DHT22;5061;49.068;12.058;2024-03-23T03:26:14;8.00;99.90
10042;DHT22;5061;49.068;12.058;2024-03-23T03:29:35;7.90;99.90
10042;DHT22;5061;49.068;12.058;2024-03-23T03:32:56;7.90;99.90
10042;DHT22;5061;49.068;12.058;2024-03-23T03:36:16;7.90;99.90
10042;DHT22;5061;49.068;12.058;2024-03-23T03:39:37;7.90;99.90
10042;DHT22;5061;49.068;12.058;2024-03-23T03:42:57;8.00;99.90
10042;DHT22;5061;49.068;12.058;2024-03-23T03:46:18;7.90;99.90
10042;DHT22;5061;49.068;12.058;2024-03-23T03:49:39;7.90;99.90
10042;DHT22;5061;49.068;12.058;2024-03-23T03:52:59;7.90;99.90
10042;DHT22;5061;49.068;12.058;2024-03-23T03:56:20;8.00;99.90
10042;DHT22;5061;49.068;12.058;2024-03-23T03:59:42;8.00;99.90
10042;DHT22;5061;49.068;12.058;2024-03-23T04:03:02;8.00;99.90
10042;DHT22;5061;49.068;12.058;2024-03-23T04:06:23;8.00;99.90
10042;DHT22;5061;49.068;12.058;2024-03-23T04:09:44;8.00;99.90
10042;DHT22;5061;49.068;12.058;2024-03-23T04:13:04;8.10;99.90
10042;DHT22;5061;49.068;12.058;2024-03-23T04:16:27;8.00;99.90
10042;DHT22;5061;49.068;12.058;2024-03-23T04:19:48;8.00;99.90
10042;DHT22;5061;49.068;12.058;2024-03-23T04:23:10;8.00;99.90
10042;DHT22;5061;49.068;12.058;2024-03-23T04:26:43;7.90;99.90
10042;DHT22;5061;49.068;12.058;2024-03-23T04:30:04;7.90;99.90
10042;DHT22;5061;49.068;12.058;2024-03-23T04:33:30;7.90;99.90
10042;DHT22;5061;49.068;12.058;2024-03-23T04:36:51;7.80;99.90
10042;DHT22;5061;49.068;12.058;2024-03-23T04:40:11;7.80;99.90
10042;DHT22;5061;49.068;12.058;2024-03-23T04:43:32;7.80;99.90
10042;DHT22;5061;49.068;12.058;2024-03-23T04:46:53;7.80;99.90
10042;DHT22;5061;49.068;12.058;2024-03-23T04:50:14;7.80;99.90
10042;DHT22;5061;49.068;12.058;2024-03-23T04:53:34;7.90;99.90
10042;DHT22;5061;49.068;12.058;2024-03-23T04:56:55;7.90;99.90
10042;DHT22;5061;49.068;12.058;2024-03-23T05:00:16;7.90;99.90
10042;DHT22;5061;49.068;12.058;2024-03-23T05:03:37;7.90;99.90
10042;DHT22;5061;49.068;12.058;2024-03-23T05:06:58;7.90;99.90
10042;DHT22;5061;49.068;12.058;2024-03-23T05:10:18;7.90;99.90
10042;DHT22;5061;49.068;12.058;2024-03-23T05:13:39;7.90;99.90
10042;DHT22;5061;49.068;12.058;2024-03-23T05:17:00;7.90;99.90
10042;DHT22;5061;49.068;12.058;2024-03-23T05:20:20;7.90;99.90
10042;DHT22;5061;49.068;12.058;2024-03-23T05:23:41;7.90;99.90
10042;DHT22;5061;49.068;12.058;2024-03-23T05:27:03;7.90;99.90
10042;DHT22;5061;49.068;12.058;2024-03-23T05:30:24;7.90;99.90
10042;DHT22;5061;49.068;12.058;2024-03-23T05:33:45;7.90;99.90
10042;DHT22;5061;49.068;12.058;2024-03-23T05:37:08;7.90;99.90
10042;DHT22;5061;49.068;12.058;2024-03-23T05:40:29;8.00;99.90
10042;DHT22;5061;49.068;12.058;2024-03-23T05:43:49;7.90;99.90
10042;DHT22;5061;49.068;12.058;2024-03-23T05:47:10;7.90;99.90
10042;DHT22;5061;49.068;12.058;2024-03-23T05:50:31;7.90;99.90
10042;DHT22;5061;49.068;12.058;2024-03-23T05:53:51;7.80;99.90
10042;DHT22;5061;49.068;12.058;2024-03-23T05:57:12;7.80;99.90
10042;DHT22;5061;49.068;12.058;2024-03-23T06:00:34;7.80;99.90
10042;DHT22;5061;49.068;12.058;2024-03-23T06:03:55;7.70;99.90
10042;DHT22;5061;49.068;12.058;2024-03-23T06:07:15;7.70;99.90
10042;DHT22;5061;49.068;12.058;2024-03-23T06:10:36;7.60;99.90
10042;DHT22;5061;49.068;12.058;2024-03-23T06:13:57;7.60;99.90
10042;DHT22;5061;49.068;12.058;2024-03-23T06:17:17;7.60;99.90
10042;DHT22;5061;49.068;12.058;2024-03-23T06:20:38;7.60;99.90
10042;DHT22;5061;49.068;12.058;2024-03-23T06:23:59;7.60;99.90
10042;DHT22;5061;49.068;12.058;2024-03-23T06:27:19;7.60;99.90
10042;DHT22;5061;49.068;12.058;2024-03-23T06:30:40;7.60;99.90
10042;DHT22;5061;49.068;12.058;2024-03-23T06:34:00;7.70;99.90
10042;DHT22;5061;49.068;12.058;2024-03-23T06:37:22;7.70;99.90
10042;DHT22;5061;49.068;12.058;2024-03-23T06:40:42;7.80;99.90
10042;DHT22;5061;49.068;12.058;2024-03-23T06:44:03;7.80;99.90
10042;DHT22;5061;49.068;12.058;2024-03-23T06:47:24;7.90;99.90
10042;DHT22;5061;49.068;12.058;2024-03-23T06:50:46;8.00;99.90
10042;DHT22;5061;49.068;12.058;2024-03-23T06:54:07;8.10;99.90
10042;DHT22;5061;49.068;12.058;2024-03-23T06:57:27;8.20;99.90
10042;DHT22;5061;49.068;12.058;2024-03-23T07:00:48;8.40;99.90
10042;DHT22;5061;49.068;12.058;2024-03-23T07:04:09;8.50;99.90
10042;DHT22;5061;49.068;12.058;2024-03-23T07:07:29;8.70;99.90
10042;DHT22;5061;49.068;12.058;2024-03-23T07:10:50;8.90;99.90
10042;DHT22;5061;49.068;12.058;2024-03-23T07:14:11;9.00;99.90
10042;DHT22;5061;49.068;12.058;2024-03-23T07:17:32;9.10;99.90
10042;DHT22;5061;49.068;12.058;2024-03-23T07:20:56;9.20;99.90
10042;DHT22;5061;49.068;12.058;2024-03-23T07:24:17;9.30;99.90
10042;DHT22;5061;49.068;12.058;2024-03-23T07:27:38;9.40;99.90
10042;DHT22;5061;49.068;12.058;2024-03-23T07:31:05;9.50;99.90
10042;DHT22;5061;49.068;12.058;2024-03-23T07:34:26;9.50;99.90
10042;DHT22;5061;49.068;12.058;2024-03-23T07:37:47;9.50;99.90
10042;DHT22;5061;49.068;12.058;2024-03-23T07:41:15;9.50;99.90
10042;DHT22;5061;49.068;12.058;2024-03-23T07:44:37;9.50;99.90
10042;DHT22;5061;49.068;12.058;2024-03-23T07:47:58;9.50;99.90
10042;DHT22;5061;49.068;12.058;2024-03-23T07:51:21;9.50;99.90
10042;DHT22;5061;49.068;12.058;2024-03-23T07:54:42;9.50;99.90
10042;DHT22;5061;49.068;12.058;2024-03-23T07:58:03;9.50;99.90
10042;DHT22;5061;49.068;12.058;2024-03-23T08:01:23;9.50;99.90
10042;DHT22;5061;49.068;12.058;2024-03-23T08:04:44;9.60;99.90
10042;DHT22;5061;49.068;12.058;2024-03-23T08:08:05;9.50;99.90
10042;DHT22;5061;49.068;12.058;2024-03-23T08:11:29;9.50;99.90
10042;DHT22;5061;49.068;12.058;2024-03-23T08:14:50;9.40;99.90
10042;DHT22;5061;49.068;12.058;2024-03-23T08:18:12;9.40;99.90
10042;DHT22;5061;49.068;12.058;2024-03-23T08:21:32;9.30;99.90
10042;DHT22;5061;49.068;12.058;2024-03-23T08:24:53;9.30;99.90
10042;DHT22;5061;49.068;12.058;2024-03-23T08:28:13;9.20;99.90
10042;DHT22;5061;49.068;12.058;2024-03-23T08:31:34;9.10;99.90
10042;DHT22;5061;49.068;12.058;2024-03-23T08:34:55;9.00;99.90
10042;DHT22;5061;49.068;12.058;2024-03-23T08:38:15;9.00;99.90
10042;DHT22;5061;49.068;12.058;2024-03-23T08:41:36;8.90;99.90
10042;DHT22;5061;49.068;12.058;2024-03-23T08:44:57;8.90;99.90
10042;DHT22;5061;49.068;12.058;2024-03-23T08:48:20;8.80;99.90
10042;DHT22;5061;49.068;12.058;2024-03-23T08:51:47;8.80;99.90
10042;DHT22;5061;49.068;12.058;2024-03-23T08:55:08;8.80;99.90
10042;DHT22;5061;49.068;12.058;2024-03-23T08:58:30;8.90;99.90
10042;DHT22;5061;49.068;12.058;2024-03-23T09:01:52;8.90;99.90
10042;DHT22;5061;49.068;12.058;2024-03-23T09:05:12;9.00;99.90
10042;DHT22;5061;49.068;12.058;2024-03-23T09:08:33;9.00;99.90
10042;DHT22;5061;49.068;12.058;2024-03-23T09:11:54;9.10;99.90
10042;DHT22;5061;49.068;12.058;2024-03-23T09:15:15;9.20;99.90
10042;DHT22;5061;49.068;12.058;2024-03-23T09:18:36;9.30;99.90
10042;DHT22;5061;49.068;12.058;2024-03-23T09:21:57;9.30;99.90
10042;DHT22;5061;49.068;12.058;2024-03-23T09:25:20;9.40;99.90
10042;DHT22;5061;49.068;12.058;2024-03-23T09:28:41;9.50;99.90
10042;DHT22;5061;49.068;12.058;2024-03-23T09:32:01;9.60;99.90
10042;DHT22;5061;49.068;12.058;2024-03-23T09:35:22;9.70;99.90
10042;DHT22;5061;49.068;12.058;2024-03-23T09:38:42;9.80;99.90
10042;DHT22;5061;49.068;12.058;2024-03-23T09:42:04;10.00;99.90
10042;DHT22;5061;49.068;12.058;2024-03-23T09:45:29;10.10;99.90
10042;DHT22;5061;49.068;12.058;2024-03-23T09:48:50;10.20;99.90
10042;DHT22;5061;49.068;12.058;2024-03-23T09:52:10;10.30;99.90
10042;DHT22;5061;49.068;12.058;2024-03-23T09:55:31;10.30;99.90
10042;DHT22;5061;49.068;12.058;2024-03-23T09:58:52;10.40;99.90
10042;DHT22;5061;49.068;12.058;2024-03-23T10:02:20;10.50;99.90
10042;DHT22;5061;49.068;12.058;2024-03-23T10:05:41;10.40;99.90
10042;DHT22;5061;49.068;12.058;2024-03-23T10:09:16;10.10;99.90
10042;DHT22;5061;49.068;12.058;2024-03-23T10:12:47;9.90;99.90
10042;DHT22;5061;49.068;12.058;2024-03-23T10:16:08;9.80;99.90
10042;DHT22;5061;49.068;12.058;2024-03-23T10:19:32;9.90;99.90
10042;DHT22;5061;49.068;12.058;2024-03-23T10:22:52;9.90;99.90
10042;DHT22;5061;49.068;12.058;2024-03-23T10:29:39;10.00;99.90
10042;DHT22;5061;49.068;12.058;2024-03-23T10:33:10;10.10;99.90
10042;DHT22;5061;49.068;12.058;2024-03-23T10:36:31;10.00;99.90
10042;DHT22;5061;49.068;12.058;2024-03-23T10:39:52;10.00;99.90
10042;DHT22;5061;49.068;12.058;2024-03-23T10:43:13;10.00;99.90
10042;DHT22;5061;49.068;12.058;2024-03-23T10:46:34;10.00;99.90
10042;DHT22;5061;49.068;12.058;2024-03-23T10:49:55;10.00;99.90
10042;DHT22;5061;49.068;12.058;2024-03-23T10:53:16;10.10;99.90
10042;DHT22;5061;49.068;12.058;2024-03-23T10:56:39;10.10;99.90
10042;DHT22;5061;49.068;12.058;2024-03-23T11:00:02;10.00;99.90
10042;DHT22;5061;49.068;12.058;2024-03-23T11:06:51;9.80;99.90
10042;DHT22;5061;49.068;12.058;2024-03-23T11:10:25;9.70;99.90
10042;DHT22;5061;49.068;12.058;2024-03-23T11:13:51;9.60;99.90
10042;DHT22;5061;49.068;12.058;2024-03-23T11:17:11;9.60;99.90
10042;DHT22;5061;49.068;12.058;2024-03-23T11:20:32;9.50;99.90
10042;DHT22;5061;49.068;12.058;2024-03-23T11:23:53;9.40;99.90
10042;DHT22;5061;49.068;12.058;2024-03-23T11:27:17;9.40;99.90
10042;DHT22;5061;49.068;12.058;2024-03-23T11:30:38;9.30;99.90
10042;DHT22;5061;49.068;12.058;2024-03-23T11:34:05;9.20;99.90
10042;DHT22;5061;49.068;12.058;2024-03-23T11:37:26;9.20;99.90
10042;DHT22;5061;49.068;12.058;2024-03-23T11:40:49;9.20;99.90
10042;DHT22;5061;49.068;12.058;2024-03-23T11:44:17;9.40;99.90
10042;DHT22;5061;49.068;12.058;2024-03-23T11:48:04;9.70;99.90
10042;DHT22;5061;49.068;12.058;2024-03-23T11:51:36;10.10;99.90
10042;DHT22;5061;49.068;12.058;2024-03-23T11:55:06;10.30;99.90
10042;DHT22;5061;49.068;12.058;2024-03-23T11:58:34;10.20;99.90
10042;DHT22;5061;49.068;12.058;2024-03-23T12:01:55;9.90;99.90
10042;DHT22;5061;49.068;12.058;2024-03-23T12:05:17;9.40;99.90
10042;DHT22;5061;49.068;12.058;2024-03-23T12:08:38;9.00;99.90
10042;DHT22;5061;49.068;12.058;2024-03-23T12:12:09;8.80;99.90
10042;DHT22;5061;49.068;12.058;2024-03-23T12:15:29;8.70;99.90
10042;DHT22;5061;49.068;12.058;2024-03-23T12:18:50;8.80;99.90
10042;DHT22;5061;49.068;12.058;2024-03-23T12:22:15;8.80;99.90
10042;DHT22;5061;49.068;12.058;2024-03-23T12:25:36;8.70;99.90
10042;DHT22;5061;49.068;12.058;2024-03-23T12:28:56;8.90;99.90
10042;DHT22;5061;49.068;12.058;2024-03-23T12:32:17;9.00;99.90
10042;DHT22;5061;49.068;12.058;2024-03-23T12:35:39;9.00;99.90
10042;DHT22;5061;49.068;12.058;2024-03-23T12:38:59;8.90;99.90
10042;DHT22;5061;49.068;12.058;2024-03-23T12:42:20;8.90;99.90
10042;DHT22;5061;49.068;12.058;2024-03-23T12:45:45;8.90;99.90
10042;DHT22;5061;49.068;12.058;2024-03-23T12:49:06;8.90;99.90
10042;DHT22;5061;49.068;12.058;2024-03-23T12:52:27;8.90;99.90
10042;DHT22;5061;49.068;12.058;2024-03-23T12:55:50;8.90;99.90
10042;DHT22;5061;49.068;12.058;2024-03-23T12:59:11;9.00;99.90
10042;DHT22;5061;49.068;12.058;2024-03-23T13:02:31;9.00;99.90
10042;DHT22;5061;49.068;12.058;2024-03-23T13:05:52;9.00;99.90
10042;DHT22;5061;49.068;12.058;2024-03-23T13:09:13;8.90;99.90
10042;DHT22;5061;49.068;12.058;2024-03-23T13:12:34;8.90;99.90
10042;DHT22;5061;49.068;12.058;2024-03-23T13:15:54;8.90;99.90
10042;DHT22;5061;49.068;12.058;2024-03-23T13:19:15;9.10;99.90
10042;DHT22;5061;49.068;12.058;2024-03-23T13:22:35;9.30;99.90
10042;DHT22;5061;49.068;12.058;2024-03-23T13:25:56;9.30;99.90
10042;DHT22;5061;49.068;12.058;2024-03-23T13:29:17;9.20;99.90
10042;DHT22;5061;49.068;12.058;2024-03-23T13:32:37;9.10;99.90
10042;DHT22;5061;49.068;12.058;2024-03-23T13:35:58;9.00;99.90
10042;DHT22;5061;49.068;12.058;2024-03-23T13:39:19;8.80;99.90
10042;DHT22;5061;49.068;12.058;2024-03-23T13:42:42;8.70;99.90
10042;DHT22;5061;49.068;12.058;2024-03-23T13:46:02;8.60;99.90
10042;DHT22;5061;49.068;12.058;2024-03-23T13:49:28;8.50;99.90
10042;DHT22;5061;49.068;12.058;2024-03-23T13:52:48;8.50;99.90
10042;DHT22;5061;49.068;12.058;2024-03-23T13:56:09;8.50;99.90
10042;DHT22;5061;49.068;12.058;2024-03-23T13:59:30;8.50;99.90
10042;DHT22;5061;49.068;12.058;2024-03-23T14:02:50;8.50;99.90
10042;DHT22;5061;49.068;12.058;2024-03-23T14:06:11;8.60;99.90
10042;DHT22;5061;49.068;12.058;2024-03-23T14:09:31;8.70;99.90
10042;DHT22;5061;49.068;12.058;2024-03-23T14:12:53;8.80;99.90
10042;DHT22;5061;49.068;12.058;2024-03-23T14:16:14;9.00;99.90
10042;DHT22;5061;49.068;12.058;2024-03-23T14:19:34;9.10;99.90
10042;DHT22;5061;49.068;12.058;2024-03-23T14:22:55;9.10;99.90
10042;DHT22;5061;49.068;12.058;2024-03-23T14:26:16;9.20;99.90
10042;DHT22;5061;49.068;12.058;2024-03-23T14:29:37;9.20;99.90
10042;DHT22;5061;49.068;12.058;2024-03-23T14:32:57;9.20;99.90
10042;DHT22;5061;49.068;12.058;2024-03-23T14:36:19;9.10;99.90
10042;DHT22;5061;49.068;12.058;2024-03-23T14:39:40;9.00;99.90
10042;DHT22;5061;49.068;12.058;2024-03-23T14:43:02;8.90;99.90
10042;DHT22;5061;49.068;12.058;2024-03-23T14:46:23;8.80;99.90
10042;DHT22;5061;49.068;12.058;2024-03-23T14:49:44;8.80;99.90
10042;DHT22;5061;49.068;12.058;2024-03-23T14:53:08;8.70;99.90
10042;DHT22;5061;49.068;12.058;2024-03-23T14:56:29;8.80;99.90
10042;DHT22;5061;49.068;12.058;2024-03-23T14:59:49;8.70;99.90
10042;DHT22;5061;49.068;12.058;2024-03-23T15:03:10;8.70;99.90
10042;DHT22;5061;49.068;12.058;2024-03-23T15:06:31;8.70;99.90
10042;DHT22;5061;49.068;12.058;2024-03-23T15:09:51;8.60;99.90
10042;DHT22;5061;49.068;12.058;2024-03-23T15:13:14;8.70;99.90
10042;DHT22;5061;49.068;12.058;2024-03-23T15:16:35;8.70;99.90
10042;DHT22;5061;49.068;12.058;2024-03-23T15:19:55;8.60;99.90
10042;DHT22;5061;49.068;12.058;2024-03-23T15:23:16;8.60;99.90
10042;DHT22;5061;49.068;12.058;2024-03-23T15:26:37;8.60;99.90
10042;DHT22;5061;49.068;12.058;2024-03-23T15:29:58;8.60;99.90
10042;DHT22;5061;49.068;12.058;2024-03-23T15:33:19;8.80;99.90
10042;DHT22;5061;49.068;12.058;2024-03-23T15:36:41;8.90;99.90
10042;DHT22;5061;49.068;12.058;2024-03-23T15:40:02;8.90;99.90
10042;DHT22;5061;49.068;12.058;2024-03-23T15:43:23;8.90;99.90
10042;DHT22;5061;49.068;12.058;2024-03-23T15:46:44;9.00;99.90
10042;DHT22;5061;49.068;12.058;2024-03-23T15:50:05;9.10;99.90
10042;DHT22;5061;49.068;12.058;2024-03-23T15:53:29;9.10;99.90
10042;DHT22;5061;49.068;12.058;2024-03-23T15:56:49;9.20;99.90
10042;DHT22;5061;49.068;12.058;2024-03-23T16:00:10;9.10;99.90
10042;DHT22;5061;49.068;12.058;2024-03-23T16:03:32;9.10;99.90
10042;DHT22;5061;49.068;12.058;2024-03-23T16:06:53;9.00;99.90
10042;DHT22;5061;49.068;12.058;2024-03-23T16:10:14;8.90;99.90
10042;DHT22;5061;49.068;12.058;2024-03-23T16:13:35;8.90;99.90
10042;DHT22;5061;49.068;12.058;2024-03-23T16:16:56;8.80;99.90
10042;DHT22;5061;49.068;12.058;2024-03-23T16:20:16;8.70;99.90
10042;DHT22;5061;49.068;12.058;2024-03-23T16:23:37;8.60;99.90
10042;DHT22;5061;49.068;12.058;2024-03-23T16:26:58;8.50;99.90
10042;DHT22;5061;49.068;12.058;2024-03-23T16:30:19;8.50;99.90
10042;DHT22;5061;49.068;12.058;2024-03-23T16:33:40;8.40;99.90
10042;DHT22;5061;49.068;12.058;2024-03-23T16:37:01;8.30;99.90
10042;DHT22;5061;49.068;12.058;2024-03-23T16:40:23;7.80;99.90
10042;DHT22;5061;49.068;12.058;2024-03-23T16:43:45;7.50;99.90
10042;DHT22;5061;49.068;12.058;2024-03-23T16:47:06;7.10;99.90
10042;DHT22;5061;49.068;12.058;2024-03-23T16:50:27;6.90;99.90
10042;DHT22;5061;49.068;12.058;2024-03-23T16:53:48;6.60;99.90
10042;DHT22;5061;49.068;12.058;2024-03-23T16:57:08;6.40;99.90
10042;DHT22;5061;49.068;12.058;2024-03-23T17:00:29;6.20;99.90
10042;DHT22;5061;49.068;12.058;2024-03-23T17:03:51;6.20;99.90
10042;DHT22;5061;49.068;12.058;2024-03-23T17:07:12;6.10;99.90
10042;DHT22;5061;49.068;12.058;2024-03-23T17:10:32;6.00;99.90
10042;DHT22;5061;49.068;12.058;2024-03-23T17:13:53;5.90;99.90
10042;DHT22;5061;49.068;12.058;2024-03-23T17:17:16;5.80;99.90
10042;DHT22;5061;49.068;12.058;2024-03-23T17:20:37;5.70;99.90
10042;DHT22;5061;49.068;12.058;2024-03-23T17:23:57;5.70;99.90
10042;DHT22;5061;49.068;12.058;2024-03-23T17:27:19;5.60;99.90
10042;DHT22;5061;49.068;12.058;2024-03-23T17:30:39;5.50;99.90
10042;DHT22;5061;49.068;12.058;2024-03-23T17:34:00;5.50;99.90
10042;DHT22;5061;49.068;12.058;2024-03-23T17:37:20;5.50;99.90
10042;DHT22;5061;49.068;12.058;2024-03-23T17:40:43;5.40;99.90
10042;DHT22;5061;49.068;12.058;2024-03-23T17:44:03;5.30;99.90
10042;DHT22;5061;49.068;12.058;2024-03-23T17:47:24;5.30;99.90
10042;DHT22;5061;49.068;12.058;2024-03-23T17:50:45;5.20;99.90
10042;DHT22;5061;49.068;12.058;2024-03-23T17:54:05;5.20;99.90
10042;DHT22;5061;49.068;12.058;2024-03-23T17:57:26;5.20;99.90
10042;DHT22;5061;49.068;12.058;2024-03-23T18:00:47;5.10;99.90
10042;DHT22;5061;49.068;12.058;2024-03-23T18:04:08;5.00;99.90
10042;DHT22;5061;49.068;12.058;2024-03-23T18:07:28;4.90;99.90
10042;DHT22;5061;49.068;12.058;2024-03-23T18:10:49;4.90;99.90
10042;DHT22;5061;49.068;12.058;2024-03-23T18:14:09;4.90;99.90
10042;DHT22;5061;49.068;12.058;2024-03-23T18:17:30;4.90;99.90
10042;DHT22;5061;49.068;12.058;2024-03-23T18:20:51;4.80;99.90
10042;DHT22;5061;49.068;12.058;2024-03-23T18:24:12;4.80;99.90
10042;DHT22;5061;49.068;12.058;2024-03-23T18:27:33;4.80;99.90
10042;DHT22;5061;49.068;12.058;2024-03-23T18:31:00;4.70;99.90
10042;DHT22;5061;49.068;12.058;2024-03-23T18:34:21;4.60;99.90
10042;DHT22;5061;49.068;12.058;2024-03-23T18:37:41;4.60;99.90
10042;DHT22;5061;49.068;12.058;2024-03-23T18:41:04;4.60;99.90
10042;DHT22;5061;49.068;12.058;2024-03-23T18:44:24;4.50;99.90
10042;DHT22;5061;49.068;12.058;2024-03-23T18:47:45;4.50;99.90
10042;DHT22;5061;49.068;12.058;2024-03-23T18:51:05;4.40;99.90
10042;DHT22;5061;49.068;12.058;2024-03-23T18:54:27;4.30;99.90
10042;DHT22;5061;49.068;12.058;2024-03-23T18:57:47;4.30;99.90
10042;DHT22;5061;49.068;12.058;2024-03-23T19:01:08;4.20;99.90
10042;DHT22;5061;49.068;12.058;2024-03-23T19:04:29;4.10;99.90
10042;DHT22;5061;49.068;12.058;2024-03-23T19:07:49;4.10;99.90
10042;DHT22;5061;49.068;12.058;2024-03-23T19:11:10;4.00;99.90
10042;DHT22;5061;49.068;12.058;2024-03-23T19:14:31;4.00;99.90
10042;DHT22;5061;49.068;12.058;2024-03-23T19:17:51;4.00;99.90
10042;DHT22;5061;49.068;12.058;2024-03-23T19:21:12;3.90;99.90
10042;DHT22;5061;49.068;12.058;2024-03-23T19:24:33;3.90;99.90
10042;DHT22;5061;49.068;12.058;2024-03-23T19:27:53;3.90;99.90
10042;DHT22;5061;49.068;12.058;2024-03-23T19:31:14;3.90;99.90
10042;DHT22;5061;49.068;12.058;2024-03-23T19:34:37;3.90;99.90
10042;DHT22;5061;49.068;12.058;2024-03-23T19:37:57;3.90;99.90
10042;DHT22;5061;49.068;12.058;2024-03-23T19:41:18;3.80;99.90
10042;DHT22;5061;49.068;12.058;2024-03-23T19:44:39;3.80;99.90
10042;DHT22;5061;49.068;12.058;2024-03-23T19:48:02;3.80;99.90
10042;DHT22;5061;49.068;12.058;2024-03-23T19:51:24;3.80;99.90
10042;DHT22;5061;49.068;12.058;2024-03-23T19:54:44;3.80;99.90
10042;DHT22;5061;49.068;12.058;2024-03-23T19:58:05;3.80;99.90
10042;DHT22;5061;49.068;12.058;2024-03-23T20:01:26;3.80;99.90
10042;DHT22;5061;49.068;12.058;2024-03-23T20:04:47;3.80;99.90
10042;DHT22;5061;49.068;12.058;2024-03-23T20:08:08;3.80;99.90
10042;DHT22;5061;49.068;12.058;2024-03-23T20:11:28;3.80;99.90
10042;DHT22;5061;49.068;12.058;2024-03-23T20:14:49;3.90;99.90
10042;DHT22;5061;49.068;12.058;2024-03-23T20:18:10;3.90;99.90
10042;DHT22;5061;49.068;12.058;2024-03-23T20:21:31;4.00;99.90
10042;DHT22;5061;49.068;12.058;2024-03-23T20:24:52;4.00;99.90
10042;DHT22;5061;49.068;12.058;2024-03-23T20:28:13;4.00;99.90
10042;DHT22;5061;49.068;12.058;2024-03-23T20:31:34;4.00;99.90
10042;DHT22;5061;49.068;12.058;2024-03-23T20:34:56;3.90;99.90
10042;DHT22;5061;49.068;12.058;2024-03-23T20:38:18;3.90;99.90
10042;DHT22;5061;49.068;12.058;2024-03-23T20:41:39;3.90;99.90
10042;DHT22;5061;49.068;12.058;2024-03-23T20:44:59;3.90;99.90
10042;DHT22;5061;49.068;12.058;2024-03-23T20:48:20;3.90;99.90
10042;DHT22;5061;49.068;12.058;2024-03-23T20:51:40;3.80;99.90
10042;DHT22;5061;49.068;12.058;2024-03-23T20:55:01;3.80;99.90
10042;DHT22;5061;49.068;12.058;2024-03-23T20:58:22;3.80;99.90
10042;DHT22;5061;49.068;12.058;2024-03-23T21:01:43;3.70;99.90
10042;DHT22;5061;49.068;12.058;2024-03-23T21:05:04;3.70;99.90
10042;DHT22;5061;49.068;12.058;2024-03-23T21:08:25;3.60;99.90
10042;DHT22;5061;49.068;12.058;2024-03-23T21:11:45;3.50;99.90
10042;DHT22;5061;49.068;12.058;2024-03-23T21:15:06;3.50;99.90
10042;DHT22;5061;49.068;12.058;2024-03-23T21:18:28;3.40;99.90
10042;DHT22;5061;49.068;12.058;2024-03-23T21:21:48;3.40;99.90
10042;DHT22;5061;49.068;12.058;2024-03-23T21:25:12;3.40;99.90
10042;DHT22;5061;49.068;12.058;2024-03-23T21:28:33;3.40;99.90
10042;DHT22;5061;49.068;12.058;2024-03-23T21:31:53;3.40;99.90
10042;DHT22;5061;49.068;12.058;2024-03-23T21:35:15;3.40;99.90
10042;DHT22;5061;49.068;12.058;2024-03-23T21:38:36;3.40;99.90
10042;DHT22;5061;49.068;12.058;2024-03-23T21:41:56;3.40;99.90
10042;DHT22;5061;49.068;12.058;2024-03-23T21:45:17;3.30;99.90
10042;DHT22;5061;49.068;12.058;2024-03-23T21:48:38;3.30;99.90
10042;DHT22;5061;49.068;12.058;2024-03-23T21:51:58;3.30;99.90
10042;DHT22;5061;49.068;12.058;2024-03-23T21:55:20;3.20;99.90
10042;DHT22;5061;49.068;12.058;2024-03-23T21:58:40;3.20;99.90
10042;DHT22;5061;49.068;12.058;2024-03-23T22:02:01;3.20;99.90
10042;DHT22;5061;49.068;12.058;2024-03-23T22:05:24;3.20;99.90
10042;DHT22;5061;49.068;12.058;2024-03-23T22:08:45;3.20;99.90
10042;DHT22;5061;49.068;12.058;2024-03-23T22:12:06;3.20;99.90
10042;DHT22;5061;49.068;12.058;2024-03-23T22:15:27;3.20;99.90
10042;DHT22;5061;49.068;12.058;2024-03-23T22:18:48;3.20;99.90
10042;DHT22;5061;49.068;12.058;2024-03-23T22:22:09;3.20;99.90
10042;DHT22;5061;49.068;12.058;2024-03-23T22:25:30;3.10;99.90
10042;DHT22;5061;49.068;12.058;2024-03-23T22:28:51;3.10;99.90
10042;DHT22;5061;49.068;12.058;2024-03-23T22:32:11;3.10;99.90